createdAt,value
2019-04-23T08:46:51.101Z,16.20
2019-04-23T08:47:29.901Z,14.80
2019-04-23T08:48:48.021Z,14.20
2019-04-23T08:49:36.219Z,15.30
2019-04-23T08:53:18.285Z,13.40
2019-04-23T08:54:05.727Z,16.70
2019-04-23T08:54:52.305Z,0.00
2019-04-23T10:55:17.751Z,7.10
2019-04-23T10:56:21.416Z,7.70
2019-04-23T10:57:18.740Z,7.90
2019-04-23T10:58:15.757Z,6.40
2019-04-23T10:59:28.735Z,5.80
2019-04-23T11:00:26.811Z,6.00
2019-04-23T11:01:14.680Z,6.80
2019-04-23T11:04:38.401Z,6.60
2019-04-23T11:05:35.484Z,5.10
2019-04-23T11:06:30.824Z,4.60
2019-04-23T11:07:30.949Z,6.40
2019-04-23T11:08:27.716Z,7.80
2019-04-23T11:10:21.946Z,8.70
2019-04-23T11:13:21.638Z,6.30
2019-04-23T11:14:23.120Z,7.40
2019-04-23T11:15:27.464Z,9.70
2019-04-23T11:16:45.226Z,6.30
2019-04-23T11:17:36.340Z,8.70
2019-04-23T11:18:25.211Z,6.40
2019-04-23T11:19:32.239Z,6.70
2019-04-23T11:20:30.067Z,5.10
2019-04-23T11:21:28.712Z,6.00
2019-04-23T11:22:44.112Z,6.10
2019-04-23T11:23:27.353Z,7.50
2019-04-23T11:24:36.267Z,6.00
2019-04-23T11:25:31.659Z,5.50
2019-04-23T11:26:31.973Z,6.00
2019-04-23T11:27:28.025Z,5.40
2019-04-23T11:28:27.491Z,4.10
2019-04-23T11:29:19.266Z,7.30
2019-04-23T11:30:32.533Z,6.30
2019-04-23T11:32:34.552Z,5.10
2019-04-23T11:33:16.033Z,6.00
2019-04-23T11:35:31.170Z,6.10
2019-04-23T11:41:25.178Z,4.70
2019-04-23T11:42:16.883Z,3.70
2019-04-23T11:44:14.284Z,8.40
2019-04-23T11:46:19.400Z,6.80
2019-04-23T11:48:46.267Z,5.70
2019-04-23T11:49:34.520Z,7.10
2019-04-23T11:50:24.293Z,6.80
2019-04-23T11:51:47.517Z,5.40
2019-04-23T11:52:08.337Z,7.30
2019-04-23T11:53:24.168Z,6.30
2019-04-23T11:54:17.253Z,8.00
2019-04-23T11:55:37.508Z,4.50
2019-04-23T11:56:14.045Z,6.30
2019-04-23T11:57:40.760Z,8.90
2019-04-23T11:58:20.289Z,6.60
2019-04-23T11:59:22.867Z,6.30
2019-04-23T12:00:13.761Z,8.00
2019-04-23T12:01:38.467Z,6.00
2019-04-23T12:02:07.145Z,6.10
2019-04-23T12:03:02.627Z,8.80
2019-04-23T12:04:14.972Z,6.20
2019-04-23T12:05:09.347Z,7.60
2019-04-23T12:06:21.043Z,5.20
2019-04-23T12:07:09.621Z,9.30
2019-04-23T12:08:28.584Z,6.90
2019-04-23T12:09:25.902Z,7.20
2019-04-23T12:10:17.413Z,6.00
2019-04-23T12:14:50.976Z,7.40
2019-04-23T12:15:49.393Z,6.60
2019-04-23T12:19:01.323Z,7.20
2019-04-23T12:20:12.952Z,6.10
2019-04-23T12:20:49.149Z,9.80
2019-04-23T12:22:03.001Z,7.00
2019-04-23T12:23:06.375Z,4.50
2019-04-23T12:27:00.997Z,7.80
2019-04-23T12:27:39.064Z,8.80
2019-04-23T12:29:52.271Z,6.20
2019-04-23T12:31:47.942Z,6.80
2019-04-23T12:33:06.510Z,6.80
2019-04-23T12:33:57.390Z,5.60
2019-04-23T12:35:32.521Z,9.60
2019-04-23T12:35:50.008Z,8.40
2019-04-23T12:36:52.722Z,9.60
2019-04-23T12:37:45.017Z,6.60
2019-04-23T12:38:56.799Z,6.90
2019-04-23T12:39:56.850Z,7.30
2019-04-23T12:42:08.225Z,9.10
2019-04-23T12:43:12.017Z,8.20
2019-04-23T12:44:02.750Z,6.80
2019-04-23T12:45:03.482Z,4.80
2019-04-23T12:45:42.192Z,6.90
2019-04-23T12:47:05.747Z,6.50
2019-04-23T12:48:09.565Z,8.40
2019-04-23T12:48:46.839Z,6.80
2019-04-23T12:50:19.009Z,5.50
2019-04-23T12:50:49.937Z,6.60
2019-04-23T12:51:47.127Z,7.00
2019-04-23T12:53:43.363Z,5.10
2019-04-23T12:55:08.469Z,6.20
2019-04-23T12:55:51.255Z,6.50
2019-04-23T12:57:05.162Z,6.40
2019-04-23T12:57:52.303Z,5.70
2019-04-23T12:58:47.729Z,8.40
2019-04-23T13:00:00.364Z,7.00
2019-04-23T13:02:57.175Z,7.60
2019-04-23T13:03:52.380Z,7.10
2019-04-23T13:05:05.478Z,6.20
2019-04-23T13:05:42.273Z,5.70
2019-04-23T13:07:03.164Z,6.30
2019-04-23T13:07:55.641Z,6.00
2019-04-23T13:08:46.739Z,4.40
2019-04-23T13:10:49.657Z,4.90
2019-04-23T13:11:50.123Z,5.30
2019-04-23T13:13:01.922Z,5.50
2019-04-23T13:14:00.813Z,5.10
2019-04-23T13:15:58.301Z,5.60
2019-04-23T13:17:55.539Z,5.20
2019-04-23T13:20:00.278Z,12.00
2019-04-23T13:20:46.766Z,9.20
2019-04-23T13:23:01.805Z,7.90
2019-04-23T13:24:00.100Z,4.70
2019-04-23T13:25:03.549Z,8.00
2019-04-23T13:25:49.509Z,7.50
2019-04-23T13:26:46.556Z,7.30
2019-04-23T13:28:00.341Z,6.40
2019-04-23T13:28:58.170Z,5.80
2019-04-23T13:30:01.616Z,8.00
2019-04-23T13:31:00.734Z,5.30
2019-04-23T13:32:58.950Z,6.80
2019-04-23T13:33:51.878Z,6.60
2019-04-23T13:35:11.055Z,5.80
2019-04-23T13:36:46.785Z,4.60
2019-04-23T13:37:59.021Z,6.20
2019-04-23T13:38:58.438Z,6.70
2019-04-23T13:41:05.882Z,6.40
2019-04-23T13:41:52.461Z,6.80
2019-04-23T13:43:07.396Z,6.70
2019-04-23T13:43:48.283Z,7.00
2019-04-23T13:45:13.462Z,5.00
2019-04-23T13:47:00.954Z,3.90
2019-04-23T13:48:02.852Z,4.80
2019-04-23T13:48:58.349Z,4.60
2019-04-23T13:50:47.523Z,7.70
2019-04-23T13:51:40.425Z,6.30
2019-04-23T13:53:08.119Z,3.70
2019-04-23T13:54:58.134Z,6.30
2019-04-23T13:55:36.004Z,4.90
2019-04-23T13:58:36.074Z,5.00
2019-04-23T14:01:15.988Z,7.70
2019-04-23T14:01:43.051Z,5.00
2019-04-23T14:02:49.230Z,4.50
2019-04-23T14:03:50.634Z,4.90
2019-04-23T14:04:55.945Z,8.10
2019-04-23T14:05:57.873Z,4.50
2019-04-23T14:06:36.728Z,4.30
2019-04-23T14:09:00.162Z,4.90
2019-04-23T14:09:54.118Z,5.30
2019-04-23T14:10:46.533Z,6.00
2019-04-23T14:11:38.606Z,5.70
2019-04-23T14:13:01.925Z,5.00
2019-04-23T14:14:43.773Z,5.90
2019-04-23T14:15:55.770Z,4.40
2019-04-23T14:17:04.532Z,4.60
2019-04-23T14:18:17.014Z,6.10
2019-04-23T14:18:53.942Z,3.50
2019-04-23T14:19:47.682Z,4.00
2019-04-23T14:20:53.259Z,5.90
2019-04-23T14:21:45.915Z,5.30
2019-04-23T14:23:00.229Z,5.10
2019-04-23T14:24:04.674Z,4.80
2019-04-23T14:26:35.168Z,4.30
2019-04-23T14:29:56.415Z,6.30
2019-04-23T14:31:43.343Z,5.60
2019-04-23T14:32:43.116Z,4.50
2019-04-23T14:33:56.380Z,4.90
2019-04-23T14:34:54.434Z,4.60
2019-04-23T14:35:45.415Z,3.70
2019-04-23T14:36:52.726Z,4.40
2019-04-23T14:38:02.376Z,4.90
2019-04-23T14:38:49.572Z,5.20
2019-04-23T14:39:45.838Z,4.60
2019-04-23T14:41:01.386Z,5.20
2019-04-23T14:41:44.297Z,4.50
2019-04-23T14:42:47.614Z,3.60
2019-04-23T14:43:40.018Z,3.40
2019-04-23T14:44:56.418Z,4.50
2019-04-23T14:46:04.798Z,4.30
2019-04-23T14:46:50.025Z,4.40
2019-04-23T14:47:39.769Z,6.20
2019-04-23T14:49:58.906Z,4.00
2019-04-23T14:50:53.477Z,4.90
2019-04-23T14:53:43.871Z,4.30
2019-04-23T14:55:31.672Z,3.50
2019-04-23T14:56:00.442Z,4.50
2019-04-23T14:56:42.248Z,5.00
2019-04-23T14:58:45.706Z,4.90
2019-04-23T14:59:37.595Z,2.80
2019-04-23T15:01:05.007Z,3.20
2019-04-23T15:01:35.113Z,3.80
2019-04-23T15:02:54.349Z,5.00
2019-04-23T15:03:46.966Z,4.10
2019-04-23T15:04:51.152Z,4.10
2019-04-23T15:06:00.165Z,3.60
2019-04-23T15:06:56.883Z,4.00
2019-04-23T15:09:00.354Z,3.80
2019-04-23T15:09:36.180Z,3.60
2019-04-23T15:10:49.202Z,3.70
2019-04-23T15:12:42.788Z,2.60
2019-04-23T15:13:38.576Z,3.80
2019-04-23T15:14:52.438Z,2.70
2019-04-23T15:15:48.679Z,5.40
2019-04-23T15:16:39.411Z,2.80
2019-04-23T15:19:49.398Z,3.00
2019-04-23T15:20:46.433Z,4.00
2019-04-23T15:22:00.097Z,2.90
2019-04-23T15:28:06.580Z,6.00
2019-04-23T15:28:44.942Z,5.50
2019-04-23T15:29:49.925Z,4.80
2019-04-23T15:31:15.402Z,6.00
2019-04-23T15:32:09.921Z,4.60
2019-04-23T15:34:03.767Z,4.30
2019-04-23T15:35:17.421Z,5.30
2019-04-23T15:36:27.132Z,3.10
2019-04-23T15:37:09.948Z,3.30
2019-04-23T15:38:26.849Z,3.40
2019-04-23T15:39:05.914Z,4.90
2019-04-23T15:40:09.576Z,2.90
2019-04-23T15:41:07.362Z,3.20
2019-04-23T15:44:55.334Z,6.30
2019-04-23T15:46:16.456Z,7.40
2019-04-23T15:46:56.559Z,6.30
2019-04-23T15:48:11.654Z,5.50
2019-04-23T15:50:10.747Z,5.10
2019-04-23T15:52:03.912Z,4.30
2019-04-23T15:53:57.680Z,4.80
2019-04-23T15:56:11.521Z,5.00
2019-04-23T15:56:59.518Z,4.70
2019-04-23T15:59:04.334Z,4.80
2019-04-23T15:59:54.642Z,4.60
2019-04-23T16:01:18.110Z,6.00
2019-04-23T16:01:42.607Z,2.70
2019-04-23T16:02:37.225Z,3.80
2019-04-23T16:03:38.285Z,4.60
2019-04-23T16:04:37.899Z,6.10
2019-04-23T16:05:37.238Z,6.30
2019-04-23T16:06:38.829Z,4.30
2019-04-23T16:07:57.994Z,5.00
2019-04-23T16:08:59.483Z,3.80
2019-04-23T16:10:11.002Z,4.20
2019-04-23T16:11:21.555Z,3.80
2019-04-23T16:12:01.516Z,4.50
2019-04-23T16:13:18.483Z,0.00
2019-04-23T16:14:22.818Z,4.00
2019-04-23T16:15:13.409Z,4.70
2019-04-23T16:19:19.248Z,4.60
2019-04-23T16:20:16.468Z,3.30
2019-04-23T16:22:10.757Z,3.80
2019-04-23T16:23:24.591Z,4.80
2019-04-23T16:24:13.506Z,5.00
2019-04-23T16:25:13.356Z,3.20
2019-04-23T16:27:13.821Z,4.20
2019-04-23T16:28:18.832Z,4.20
2019-04-23T16:39:58.025Z,3.60
2019-04-23T16:40:47.628Z,5.10
2019-04-23T16:41:54.231Z,5.20
2019-04-23T16:43:44.059Z,6.10
2019-04-23T16:45:55.480Z,5.10
2019-04-23T16:48:07.458Z,4.60
2019-04-23T16:48:57.894Z,4.80
2019-04-23T16:49:58.883Z,4.00
2019-04-23T16:51:45.930Z,6.80
2019-04-23T16:52:42.400Z,5.20
2019-04-23T16:53:44.391Z,5.30
2019-04-23T16:54:54.728Z,3.80
2019-04-23T16:55:47.472Z,4.80
2019-04-23T16:57:15.241Z,4.90
2019-04-23T16:58:59.936Z,5.80
2019-04-23T17:00:08.185Z,3.10
2019-04-23T17:01:02.535Z,5.20
2019-04-23T17:01:48.922Z,4.10
2019-04-23T17:02:50.619Z,4.80
2019-04-23T17:03:56.620Z,4.30
2019-04-23T17:05:39.608Z,4.70
2019-04-23T17:06:53.423Z,2.80
2019-04-23T17:08:06.333Z,3.50
2019-04-23T17:08:57.692Z,3.50
2019-04-23T17:10:00.586Z,4.40
2019-04-23T17:12:13.766Z,5.00
2019-04-23T17:13:17.561Z,4.90
2019-04-23T17:14:09.957Z,3.70
2019-04-23T17:15:22.496Z,3.80
2019-04-23T17:16:06.792Z,3.00
2019-04-23T17:17:06.459Z,3.50
2019-04-23T17:18:17.370Z,4.40
2019-04-23T17:19:16.459Z,3.00
2019-04-23T17:25:20.543Z,3.50
2019-04-23T17:26:24.535Z,3.60
2019-04-23T17:27:11.259Z,5.00
2019-04-23T17:29:22.722Z,4.00
2019-04-23T17:30:26.331Z,3.80
2019-04-23T17:31:34.532Z,4.50
2019-04-23T17:32:14.921Z,3.10
2019-04-23T17:33:13.506Z,3.70
2019-04-23T17:34:23.536Z,3.80
2019-04-23T17:35:09.666Z,4.10
2019-04-23T17:37:13.642Z,2.80
2019-04-23T17:39:14.811Z,3.50
2019-04-23T17:41:23.842Z,5.10
2019-04-23T17:42:19.662Z,3.40
2019-04-23T17:43:16.568Z,4.30
2019-04-23T17:44:18.167Z,3.30
2019-04-23T17:45:31.062Z,3.50
2019-04-23T17:46:22.069Z,3.60
2019-04-23T17:47:24.334Z,4.30
2019-04-23T17:48:18.828Z,4.40
2019-04-23T17:49:16.855Z,3.00
2019-04-23T17:50:20.098Z,3.80
2019-04-23T17:51:13.964Z,3.60
2019-04-23T17:52:22.334Z,2.80
2019-04-23T17:53:19.872Z,4.50
2019-04-23T17:54:17.883Z,4.20
2019-04-23T17:55:15.187Z,4.60
2019-04-23T17:56:34.304Z,3.50
2019-04-23T17:57:07.543Z,3.90
2019-04-23T17:58:23.433Z,2.80
2019-04-23T17:59:20.590Z,4.20
2019-04-23T18:00:25.711Z,4.00
2019-04-23T18:01:22.579Z,4.00
2019-04-23T18:02:40.657Z,2.50
2019-04-23T18:03:18.006Z,3.70
2019-04-23T18:04:20.649Z,3.70
2019-04-23T18:05:06.177Z,3.70
2019-04-23T18:07:05.262Z,4.80
2019-04-23T18:08:21.280Z,2.60
2019-04-23T18:09:19.883Z,3.70
2019-04-23T18:10:24.801Z,3.60
2019-04-23T18:11:13.089Z,3.40
2019-04-23T18:12:16.870Z,4.90
2019-04-23T18:14:11.217Z,2.60
2019-04-23T18:17:17.870Z,2.50
2019-04-23T18:18:23.689Z,3.20
2019-04-23T18:20:16.581Z,4.30
2019-04-23T18:22:22.265Z,2.70
2019-04-23T18:23:08.727Z,3.80
2019-04-23T18:24:23.413Z,2.80
2019-04-23T18:25:17.718Z,4.40
2019-04-23T18:28:02.677Z,3.10
2019-04-23T18:29:25.580Z,3.70
2019-04-23T18:31:14.313Z,2.70
2019-04-23T18:33:44.307Z,5.80
2019-04-23T18:34:14.592Z,5.00
2019-04-23T18:35:21.052Z,3.80
2019-04-23T18:37:27.754Z,2.80
2019-04-23T18:38:21.234Z,3.40
2019-04-23T18:39:14.857Z,2.50
2019-04-23T18:40:13.687Z,3.40
2019-04-23T18:41:24.072Z,3.00
2019-04-23T18:44:37.839Z,7.80
2019-04-23T18:45:41.582Z,6.40
2019-04-23T18:46:27.991Z,6.00
2019-04-23T18:47:24.848Z,5.40
2019-04-23T18:49:34.644Z,6.80
2019-04-23T18:50:43.223Z,10.90
2019-04-23T18:51:34.210Z,7.00
2019-04-23T18:52:40.848Z,5.50
2019-04-23T18:54:28.320Z,5.90
2019-04-23T18:55:46.546Z,10.40
2019-04-23T18:56:30.630Z,8.40
2019-04-23T18:57:29.673Z,6.90
2019-04-23T18:58:35.133Z,6.60
2019-04-23T18:59:37.160Z,6.00
2019-04-23T19:01:30.985Z,7.20
2019-04-23T19:02:33.663Z,5.70
2019-04-23T19:03:43.726Z,6.90
2019-04-23T19:04:41.614Z,7.60
2019-04-23T19:05:32.760Z,10.20
2019-04-23T19:07:43.014Z,9.40
2019-04-23T19:08:51.460Z,6.60
2019-04-23T19:10:33.704Z,9.80
2019-04-23T19:11:43.908Z,5.40
2019-04-23T19:13:25.527Z,8.60
2019-04-23T19:15:30.151Z,5.80
2019-04-23T19:16:37.652Z,7.50
2019-04-23T19:17:46.640Z,6.20
2019-04-23T19:19:33.610Z,5.50
2019-04-23T19:20:47.958Z,5.50
2019-04-23T19:21:46.836Z,6.50
2019-04-23T19:22:38.133Z,3.90
2019-04-23T19:23:25.515Z,5.80
2019-04-23T19:24:31.543Z,5.20
2019-04-23T19:36:40.280Z,4.70
2019-04-23T19:37:43.597Z,4.90
2019-04-23T19:38:26.821Z,3.90
2019-04-23T19:39:26.323Z,3.50
2019-04-23T19:41:27.468Z,7.10
2019-04-23T19:42:37.992Z,3.40
2019-04-23T19:43:25.128Z,6.20
2019-04-23T19:44:38.767Z,4.20
2019-04-23T19:45:38.646Z,5.20
2019-04-23T19:46:49.173Z,3.50
2019-04-23T19:47:30.004Z,4.90
2019-04-23T19:48:42.727Z,4.10
2019-04-23T19:49:28.316Z,6.00
2019-04-23T19:50:41.414Z,5.40
2019-04-23T19:51:26.823Z,3.60
2019-04-23T19:52:52.102Z,4.80
2019-04-23T20:00:46.022Z,3.00
2019-04-23T20:02:48.165Z,4.80
2019-04-23T20:04:39.485Z,4.30
2019-04-23T20:05:41.410Z,5.20
2019-04-23T20:07:44.678Z,4.10
2019-04-23T20:08:34.321Z,2.60
2019-04-23T20:09:46.132Z,3.40
2019-04-23T20:10:33.101Z,6.60
2019-04-23T20:12:38.706Z,3.80
2019-04-23T20:13:49.847Z,4.90
2019-04-23T20:15:40.886Z,3.60
2019-04-23T20:17:37.734Z,4.40
2019-04-23T20:18:46.078Z,3.70
2019-04-23T20:20:45.440Z,3.90
2019-04-23T20:22:43.474Z,3.30
2019-04-23T20:26:10.333Z,3.60
2019-04-23T20:29:29.779Z,3.40
2019-04-23T20:32:29.119Z,3.20
2019-04-23T20:33:55.499Z,3.70
2019-04-23T20:34:34.122Z,2.90
2019-04-23T20:35:35.245Z,5.00
2019-04-23T20:36:38.533Z,4.20
2019-04-23T20:39:38.594Z,2.40
2019-04-23T20:40:40.281Z,2.90
2019-04-23T20:41:49.041Z,3.10
2019-04-23T20:42:18.070Z,2.50
2019-04-23T20:45:42.354Z,3.80
2019-04-23T20:46:43.061Z,2.10
2019-04-23T20:47:24.373Z,2.60
2019-04-23T20:50:34.189Z,2.70
2019-04-23T20:51:41.337Z,4.50
2019-04-23T20:52:27.309Z,3.10
2019-04-23T20:55:51.124Z,2.30
2019-04-23T20:56:28.420Z,2.80
2019-04-23T20:57:43.942Z,3.70
2019-04-23T20:59:45.465Z,3.20
2019-04-23T21:00:36.830Z,3.70
2019-04-23T21:01:37.197Z,3.20
2019-04-23T21:03:25.405Z,5.60
2019-04-23T21:05:00.936Z,4.80
2019-04-23T21:08:14.217Z,3.60
2019-04-23T21:09:20.212Z,7.70
2019-04-23T21:10:01.327Z,4.30
2019-04-23T21:10:55.675Z,4.30
2019-04-23T21:12:05.068Z,6.20
2019-04-23T21:14:10.912Z,7.40
2019-04-23T21:15:00.418Z,6.60
2019-04-23T21:15:45.300Z,10.60
2019-04-23T21:16:54.669Z,10.00
2019-04-23T21:18:12.290Z,7.10
2019-04-23T21:18:51.756Z,10.60
2019-04-23T21:20:01.127Z,7.40
2019-04-23T21:20:59.377Z,7.20
2019-04-23T21:22:09.768Z,7.60
2019-04-23T21:24:01.368Z,6.00
2019-04-23T21:25:49.029Z,4.70
2019-04-23T21:27:01.672Z,5.80
2019-04-23T21:28:54.270Z,5.00
2019-04-23T21:32:08.812Z,6.50
2019-04-23T21:33:04.920Z,5.50
2019-04-23T21:34:05.893Z,4.70
2019-04-23T21:35:07.887Z,5.40
2019-04-23T21:36:48.197Z,6.10
2019-04-23T21:38:00.370Z,5.70
2019-04-23T21:40:19.115Z,4.90
2019-04-23T21:41:24.124Z,4.90
2019-04-23T21:42:09.647Z,5.70
2019-04-23T21:43:00.972Z,5.90
2019-04-23T21:44:05.658Z,5.10
2019-04-23T21:45:01.560Z,3.30
2019-04-23T21:46:13.347Z,4.50
2019-04-23T21:49:08.910Z,3.40
2019-04-23T21:50:12.272Z,4.90
2019-04-23T21:51:49.212Z,5.00
2019-04-23T21:53:00.677Z,3.40
2019-04-23T21:53:55.458Z,3.50
2019-04-23T21:54:49.545Z,4.50
2019-04-23T21:55:53.814Z,3.90
2019-04-23T21:56:48.609Z,4.60
2019-04-23T21:58:07.094Z,4.80
2019-04-23T22:00:02.551Z,3.10
2019-04-23T22:01:09.009Z,4.20
2019-04-23T22:01:58.838Z,4.10
2019-04-23T22:03:08.169Z,5.30
2019-04-23T22:05:01.210Z,3.50
2019-04-23T22:06:09.983Z,4.30
2019-04-23T22:06:47.825Z,3.40
2019-04-23T22:09:08.644Z,3.10
2019-04-23T22:10:02.686Z,4.60
2019-04-23T22:11:30.545Z,3.40
2019-04-23T22:12:05.582Z,3.80
2019-04-23T22:13:12.664Z,3.90
2019-04-23T22:13:58.284Z,3.80
2019-04-23T22:14:55.355Z,3.90
2019-04-23T22:16:07.413Z,4.90
2019-04-23T22:17:02.976Z,3.20
2019-04-23T22:17:59.870Z,3.70
2019-04-23T22:19:10.573Z,3.30
2019-04-23T22:21:05.069Z,3.00
2019-04-23T22:21:55.846Z,3.80
2019-04-23T22:23:59.556Z,3.40
2019-04-23T22:26:07.294Z,3.20
2019-04-23T22:26:58.146Z,2.70
2019-04-23T22:29:16.510Z,2.60
2019-04-23T22:29:59.189Z,3.50
2019-04-23T22:30:57.069Z,3.60
2019-04-23T22:35:55.643Z,3.10
2019-04-23T22:37:09.863Z,3.50
2019-04-23T22:38:09.583Z,2.50
2019-04-23T22:38:50.629Z,3.90
2019-04-23T22:42:03.239Z,2.70
2019-04-23T22:44:05.208Z,4.20
2019-04-23T22:45:07.498Z,3.20
2019-04-23T22:45:53.424Z,2.20
2019-04-23T22:47:02.084Z,1.90
2019-04-23T22:47:56.411Z,2.90
2019-04-23T22:49:03.529Z,2.50
2019-04-23T22:52:02.696Z,2.70
2019-04-23T22:53:55.316Z,2.30
2019-04-23T22:55:05.837Z,2.70
2019-04-23T22:56:01.730Z,3.30
2019-04-23T22:58:04.387Z,2.00
2019-04-23T23:00:07.977Z,2.30
2019-04-23T23:00:57.374Z,2.80
2019-04-23T23:03:59.286Z,2.80
2019-04-23T23:05:09.973Z,2.40
2019-04-23T23:06:12.754Z,3.00
2019-04-23T23:07:03.275Z,3.00
2019-04-23T23:08:04.587Z,2.50
2019-04-23T23:09:10.223Z,2.60
2019-04-23T23:10:06.874Z,2.30
2019-04-23T23:10:50.786Z,1.80
2019-04-23T23:13:04.106Z,1.40
2019-04-23T23:16:56.613Z,2.40
2019-04-23T23:18:06.996Z,3.10
2019-04-23T23:19:07.035Z,2.00
2019-04-23T23:20:05.668Z,2.50
2019-04-23T23:21:04.270Z,2.00
2019-04-23T23:22:06.400Z,2.70
2019-04-23T23:24:00.051Z,2.30
2019-04-23T23:25:04.785Z,3.00
2019-04-23T23:26:57.364Z,1.80
2019-04-23T23:28:05.774Z,2.60
2019-04-23T23:28:51.888Z,2.10
2019-04-23T23:30:04.029Z,1.90
2019-04-23T23:30:58.084Z,2.30
2019-04-23T23:32:00.233Z,2.10
2019-04-23T23:33:02.356Z,2.30
2019-04-23T23:34:02.767Z,2.40
2019-04-23T23:35:01.936Z,1.90
2019-04-23T23:35:54.805Z,3.20
2019-04-23T23:37:02.248Z,2.70
2019-04-23T23:37:50.478Z,2.00
2019-04-23T23:38:52.365Z,2.30
2019-04-23T23:40:57.156Z,1.80
2019-04-23T23:44:24.413Z,2.30
2019-04-23T23:45:16.339Z,1.90
2019-04-23T23:45:56.044Z,1.70
2019-04-23T23:46:57.422Z,2.70
2019-04-23T23:47:58.907Z,2.90
2019-04-23T23:48:59.101Z,2.60
2019-04-23T23:51:57.718Z,1.70
2019-04-23T23:53:02.668Z,2.00
2019-04-23T23:54:02.318Z,2.30
2019-04-23T23:54:52.927Z,2.10
2019-04-23T23:57:06.768Z,2.60
2019-04-23T23:58:10.807Z,1.60
2019-04-23T23:59:04.000Z,1.70
